Главная страница
METAR-TAF:

METAR-TAF

Аэропорты :

Ringkøbing-Skjern, Дания

широта: 56-00N, долгота: 008-21E, высота над уровнем моря: 5 м

Текущие метеонаблюдения

Эта сводка был подготовлена 16 минут назад, в 21:20 UTC
Ветер 7 Узел от северо-северо-восточный
Температура 17°C
Влажность 82%
Давление 1009 hPa
Видимость 10 км и более
небольшой дождь,

METAR: EKVJ 122120Z AUTO 03007KT 9999 -RA BKN094/// OVC110/// 17/14 Q1009 TEST

Время: 23:36 (21:36 UTC)


TAF: отсутствует

Метеонаблюдения и прогнозы для более 4000 аэропортов (сводки METAR и TAF).

Имеющиеся станции представлены на карте желтыми и красными точками.

Чтобы увидеть название станции, наведите на нее мышь.

Затем щелкните, чтобы увидеть метеонаблюдения и метеопрогнозы.

Управление картой: чтобы увеличить масштаб, щелкните зеленые кнопки с черным крестиком; чтобы уменьшить масштаб, щелкните зеленую кнопку с тире; для просмотра соседних карт щелкайте зеленые стрелки.


METAR-TAF: